sensor_id;sensor_type;location;lat;lon;timestamp;P1;durP1;ratioP1;P2;durP2;ratioP2
1082;SDS011;530;51.448;7.238;2024-01-07T00:00:34;11.50;;;9.23;;
1082;SDS011;530;51.448;7.238;2024-01-07T00:03:00;12.77;;;9.17;;
1082;SDS011;530;51.448;7.238;2024-01-07T00:05:25;14.30;;;10.60;;
1082;SDS011;530;51.448;7.238;2024-01-07T00:07:51;16.23;;;9.80;;
1082;SDS011;530;51.448;7.238;2024-01-07T00:10:17;12.60;;;10.53;;
1082;SDS011;530;51.448;7.238;2024-01-07T00:12:43;12.90;;;9.60;;
1082;SDS011;530;51.448;7.238;2024-01-07T00:15:09;14.53;;;9.10;;
1082;SDS011;530;51.448;7.238;2024-01-07T00:17:35;13.47;;;9.80;;
1082;SDS011;530;51.448;7.238;2024-01-07T00:20:00;14.27;;;10.17;;
1082;SDS011;530;51.448;7.238;2024-01-07T00:22:26;12.47;;;10.00;;
1082;SDS011;530;51.448;7.238;2024-01-07T00:24:52;12.60;;;9.80;;
1082;SDS011;530;51.448;7.238;2024-01-07T00:27:17;12.50;;;9.83;;
1082;SDS011;530;51.448;7.238;2024-01-07T00:29:43;13.37;;;9.97;;
1082;SDS011;530;51.448;7.238;2024-01-07T00:32:09;12.80;;;8.87;;
1082;SDS011;530;51.448;7.238;2024-01-07T00:34:34;12.50;;;9.77;;
1082;SDS011;530;51.448;7.238;2024-01-07T00:37:00;10.80;;;8.47;;
1082;SDS011;530;51.448;7.238;2024-01-07T00:39:26;14.67;;;8.80;;
1082;SDS011;530;51.448;7.238;2024-01-07T00:41:51;13.40;;;9.30;;
1082;SDS011;530;51.448;7.238;2024-01-07T00:44:17;12.40;;;9.60;;
1082;SDS011;530;51.448;7.238;2024-01-07T00:46:42;12.93;;;9.20;;
1082;SDS011;530;51.448;7.238;2024-01-07T00:49:08;14.90;;;10.53;;
1082;SDS011;530;51.448;7.238;2024-01-07T00:51:34;13.23;;;9.43;;
1082;SDS011;530;51.448;7.238;2024-01-07T00:53:59;13.60;;;9.63;;
1082;SDS011;530;51.448;7.238;2024-01-07T00:56:25;12.73;;;9.93;;
1082;SDS011;530;51.448;7.238;2024-01-07T00:58:52;12.83;;;10.50;;
1082;SDS011;530;51.448;7.238;2024-01-07T01:01:17;14.40;;;10.80;;
1082;SDS011;530;51.448;7.238;2024-01-07T01:03:43;15.73;;;11.97;;
1082;SDS011;530;51.448;7.238;2024-01-07T01:06:08;16.90;;;11.27;;
1082;SDS011;530;51.448;7.238;2024-01-07T01:08:34;14.27;;;11.50;;
1082;SDS011;530;51.448;7.238;2024-01-07T01:11:00;15.47;;;11.50;;
1082;SDS011;530;51.448;7.238;2024-01-07T01:13:25;17.23;;;11.43;;
1082;SDS011;530;51.448;7.238;2024-01-07T01:15:51;15.20;;;12.03;;
1082;SDS011;530;51.448;7.238;2024-01-07T01:18:17;18.60;;;12.90;;
1082;SDS011;530;51.448;7.238;2024-01-07T01:20:43;19.60;;;12.50;;
1082;SDS011;530;51.448;7.238;2024-01-07T01:23:08;14.33;;;10.33;;
1082;SDS011;530;51.448;7.238;2024-01-07T01:25:34;13.13;;;10.80;;
1082;SDS011;530;51.448;7.238;2024-01-07T01:28:01;15.90;;;10.77;;
1082;SDS011;530;51.448;7.238;2024-01-07T01:30:26;16.17;;;11.50;;
1082;SDS011;530;51.448;7.238;2024-01-07T01:32:55;12.73;;;9.57;;
1082;SDS011;530;51.448;7.238;2024-01-07T01:35:21;14.10;;;10.50;;
1082;SDS011;530;51.448;7.238;2024-01-07T01:37:47;13.63;;;10.53;;
1082;SDS011;530;51.448;7.238;2024-01-07T01:40:12;14.50;;;9.50;;
1082;SDS011;530;51.448;7.238;2024-01-07T01:42:38;13.40;;;9.87;;
1082;SDS011;530;51.448;7.238;2024-01-07T01:45:07;14.33;;;10.10;;
1082;SDS011;530;51.448;7.238;2024-01-07T01:47:33;13.17;;;9.63;;
1082;SDS011;530;51.448;7.238;2024-01-07T01:49:59;14.23;;;9.90;;
1082;SDS011;530;51.448;7.238;2024-01-07T01:52:25;14.63;;;10.20;;
1082;SDS011;530;51.448;7.238;2024-01-07T01:54:51;14.50;;;10.50;;
1082;SDS011;530;51.448;7.238;2024-01-07T01:57:19;18.47;;;11.53;;
1082;SDS011;530;51.448;7.238;2024-01-07T01:59:48;14.90;;;12.20;;
1082;SDS011;530;51.448;7.238;2024-01-07T02:02:13;16.33;;;11.83;;
1082;SDS011;530;51.448;7.238;2024-01-07T02:04:39;17.17;;;12.13;;
1082;SDS011;530;51.448;7.238;2024-01-07T02:07:05;17.53;;;11.60;;
1082;SDS011;530;51.448;7.238;2024-01-07T02:09:31;17.30;;;10.93;;
1082;SDS011;530;51.448;7.238;2024-01-07T02:12:00;19.20;;;12.00;;
1082;SDS011;530;51.448;7.238;2024-01-07T02:14:29;14.43;;;10.53;;
1082;SDS011;530;51.448;7.238;2024-01-07T02:16:55;17.33;;;12.17;;
1082;SDS011;530;51.448;7.238;2024-01-07T02:19:21;16.60;;;11.27;;
1082;SDS011;530;51.448;7.238;2024-01-07T02:21:47;13.93;;;10.17;;
1082;SDS011;530;51.448;7.238;2024-01-07T02:24:16;14.53;;;9.93;;
1082;SDS011;530;51.448;7.238;2024-01-07T02:26:42;14.50;;;10.70;;
1082;SDS011;530;51.448;7.238;2024-01-07T02:29:08;14.90;;;10.93;;
1082;SDS011;530;51.448;7.238;2024-01-07T02:31:33;14.93;;;10.90;;
1082;SDS011;530;51.448;7.238;2024-01-07T02:33:59;16.80;;;12.23;;
1082;SDS011;530;51.448;7.238;2024-01-07T02:36:25;16.40;;;11.57;;
1082;SDS011;530;51.448;7.238;2024-01-07T02:38:50;19.50;;;13.37;;
1082;SDS011;530;51.448;7.238;2024-01-07T02:41:16;19.07;;;12.60;;
1082;SDS011;530;51.448;7.238;2024-01-07T02:43:42;19.53;;;13.40;;
1082;SDS011;530;51.448;7.238;2024-01-07T02:46:08;23.20;;;13.70;;
1082;SDS011;530;51.448;7.238;2024-01-07T02:48:33;20.20;;;13.83;;
1082;SDS011;530;51.448;7.238;2024-01-07T02:51:00;22.57;;;14.60;;
1082;SDS011;530;51.448;7.238;2024-01-07T02:53:25;20.03;;;13.63;;
1082;SDS011;530;51.448;7.238;2024-01-07T02:55:51;19.60;;;13.83;;
1082;SDS011;530;51.448;7.238;2024-01-07T02:58:17;21.37;;;15.07;;
1082;SDS011;530;51.448;7.238;2024-01-07T03:00:42;21.77;;;15.80;;
1082;SDS011;530;51.448;7.238;2024-01-07T03:03:08;20.83;;;15.50;;
1082;SDS011;530;51.448;7.238;2024-01-07T03:05:34;21.73;;;14.83;;
1082;SDS011;530;51.448;7.238;2024-01-07T03:07:59;21.43;;;15.23;;
1082;SDS011;530;51.448;7.238;2024-01-07T03:10:25;22.33;;;15.43;;
1082;SDS011;530;51.448;7.238;2024-01-07T03:12:51;25.77;;;16.70;;
1082;SDS011;530;51.448;7.238;2024-01-07T03:15:17;23.53;;;15.70;;
1082;SDS011;530;51.448;7.238;2024-01-07T03:17:42;23.00;;;16.00;;
1082;SDS011;530;51.448;7.238;2024-01-07T03:20:09;23.37;;;16.17;;
1082;SDS011;530;51.448;7.238;2024-01-07T03:22:35;19.67;;;14.80;;
1082;SDS011;530;51.448;7.238;2024-01-07T03:25:01;23.03;;;15.97;;
1082;SDS011;530;51.448;7.238;2024-01-07T03:27:27;24.27;;;16.67;;
1082;SDS011;530;51.448;7.238;2024-01-07T03:29:52;21.43;;;15.47;;
1082;SDS011;530;51.448;7.238;2024-01-07T03:32:18;20.70;;;16.23;;
1082;SDS011;530;51.448;7.238;2024-01-07T03:34:44;22.17;;;16.90;;
1082;SDS011;530;51.448;7.238;2024-01-07T03:37:09;23.50;;;16.17;;
1082;SDS011;530;51.448;7.238;2024-01-07T03:39:35;22.10;;;17.23;;
1082;SDS011;530;51.448;7.238;2024-01-07T03:42:01;27.33;;;18.50;;
1082;SDS011;530;51.448;7.238;2024-01-07T03:44:26;22.80;;;16.53;;
1082;SDS011;530;51.448;7.238;2024-01-07T03:46:52;21.13;;;16.30;;
1082;SDS011;530;51.448;7.238;2024-01-07T03:49:18;21.63;;;15.33;;
1082;SDS011;530;51.448;7.238;2024-01-07T03:51:43;16.13;;;13.70;;
1082;SDS011;530;51.448;7.238;2024-01-07T03:54:09;18.00;;;13.90;;
1082;SDS011;530;51.448;7.238;2024-01-07T03:56:35;17.27;;;13.47;;
1082;SDS011;530;51.448;7.238;2024-01-07T03:59:00;16.50;;;12.90;;
1082;SDS011;530;51.448;7.238;2024-01-07T04:01:26;16.53;;;13.80;;
1082;SDS011;530;51.448;7.238;2024-01-07T04:03:52;17.07;;;13.13;;
1082;SDS011;530;51.448;7.238;2024-01-07T04:06:17;16.33;;;12.90;;
1082;SDS011;530;51.448;7.238;2024-01-07T04:08:43;17.70;;;13.50;;
1082;SDS011;530;51.448;7.238;2024-01-07T04:11:08;17.40;;;13.47;;
1082;SDS011;530;51.448;7.238;2024-01-07T04:13:34;15.67;;;12.47;;
1082;SDS011;530;51.448;7.238;2024-01-07T04:16:00;14.90;;;12.50;;
1082;SDS011;530;51.448;7.238;2024-01-07T04:18:25;14.53;;;12.40;;
1082;SDS011;530;51.448;7.238;2024-01-07T04:20:51;18.77;;;13.60;;
1082;SDS011;530;51.448;7.238;2024-01-07T04:23:17;19.80;;;13.10;;
1082;SDS011;530;51.448;7.238;2024-01-07T04:25:42;16.13;;;13.60;;
1082;SDS011;530;51.448;7.238;2024-01-07T04:28:09;17.93;;;13.30;;
1082;SDS011;530;51.448;7.238;2024-01-07T04:30:35;17.93;;;13.37;;
1082;SDS011;530;51.448;7.238;2024-01-07T04:33:00;22.37;;;14.53;;
1082;SDS011;530;51.448;7.238;2024-01-07T04:35:26;20.33;;;13.40;;
1082;SDS011;530;51.448;7.238;2024-01-07T04:37:52;19.67;;;14.07;;
1082;SDS011;530;51.448;7.238;2024-01-07T04:40:17;17.87;;;12.10;;
1082;SDS011;530;51.448;7.238;2024-01-07T04:42:43;18.10;;;13.30;;
1082;SDS011;530;51.448;7.238;2024-01-07T04:45:09;17.53;;;13.50;;
1082;SDS011;530;51.448;7.238;2024-01-07T04:47:34;17.90;;;12.80;;
1082;SDS011;530;51.448;7.238;2024-01-07T04:50:00;18.13;;;12.80;;
1082;SDS011;530;51.448;7.238;2024-01-07T04:52:27;19.33;;;13.70;;
1082;SDS011;530;51.448;7.238;2024-01-07T04:54:53;19.27;;;14.37;;
1082;SDS011;530;51.448;7.238;2024-01-07T04:57:19;17.33;;;13.70;;
1082;SDS011;530;51.448;7.238;2024-01-07T04:59:49;20.83;;;14.80;;
1082;SDS011;530;51.448;7.238;2024-01-07T05:02:15;19.30;;;16.07;;
1082;SDS011;530;51.448;7.238;2024-01-07T05:04:41;20.63;;;15.40;;
1082;SDS011;530;51.448;7.238;2024-01-07T05:07:07;20.57;;;13.73;;
1082;SDS011;530;51.448;7.238;2024-01-07T05:09:33;20.40;;;13.60;;
1082;SDS011;530;51.448;7.238;2024-01-07T05:11:59;19.77;;;14.87;;
1082;SDS011;530;51.448;7.238;2024-01-07T05:14:25;21.23;;;14.80;;
1082;SDS011;530;51.448;7.238;2024-01-07T05:16:52;17.50;;;12.80;;
1082;SDS011;530;51.448;7.238;2024-01-07T05:19:18;17.20;;;12.80;;
1082;SDS011;530;51.448;7.238;2024-01-07T05:21:44;18.93;;;14.20;;
1082;SDS011;530;51.448;7.238;2024-01-07T05:24:10;17.83;;;14.20;;
1082;SDS011;530;51.448;7.238;2024-01-07T05:26:39;19.30;;;14.97;;
1082;SDS011;530;51.448;7.238;2024-01-07T05:29:06;21.40;;;14.57;;
1082;SDS011;530;51.448;7.238;2024-01-07T05:31:31;16.63;;;12.50;;
1082;SDS011;530;51.448;7.238;2024-01-07T05:33:57;19.23;;;14.07;;
1082;SDS011;530;51.448;7.238;2024-01-07T05:36:23;21.53;;;13.47;;
1082;SDS011;530;51.448;7.238;2024-01-07T05:38:49;17.50;;;13.20;;
1082;SDS011;530;51.448;7.238;2024-01-07T05:41:15;18.10;;;12.73;;
1082;SDS011;530;51.448;7.238;2024-01-07T05:43:40;18.03;;;13.13;;
1082;SDS011;530;51.448;7.238;2024-01-07T05:46:06;17.13;;;12.77;;
1082;SDS011;530;51.448;7.238;2024-01-07T05:48:42;18.60;;;14.23;;
1082;SDS011;530;51.448;7.238;2024-01-07T05:51:12;16.90;;;12.80;;
1082;SDS011;530;51.448;7.238;2024-01-07T05:53:37;18.37;;;13.80;;
1082;SDS011;530;51.448;7.238;2024-01-07T05:56:04;20.17;;;14.10;;
1082;SDS011;530;51.448;7.238;2024-01-07T05:58:30;19.33;;;12.90;;
1082;SDS011;530;51.448;7.238;2024-01-07T06:00:55;20.40;;;14.10;;
1082;SDS011;530;51.448;7.238;2024-01-07T06:03:21;20.70;;;14.83;;
1082;SDS011;530;51.448;7.238;2024-01-07T06:05:47;17.67;;;13.03;;
1082;SDS011;530;51.448;7.238;2024-01-07T06:08:13;17.23;;;14.07;;
1082;SDS011;530;51.448;7.238;2024-01-07T06:10:39;20.37;;;14.43;;
1082;SDS011;530;51.448;7.238;2024-01-07T06:13:05;20.67;;;14.53;;
1082;SDS011;530;51.448;7.238;2024-01-07T06:15:31;20.23;;;14.33;;
1082;SDS011;530;51.448;7.238;2024-01-07T06:17:56;21.60;;;14.37;;
1082;SDS011;530;51.448;7.238;2024-01-07T06:20:22;19.93;;;14.37;;
1082;SDS011;530;51.448;7.238;2024-01-07T06:22:48;20.37;;;14.07;;
1082;SDS011;530;51.448;7.238;2024-01-07T06:25:14;20.63;;;15.27;;
1082;SDS011;530;51.448;7.238;2024-01-07T06:27:40;20.77;;;14.63;;
1082;SDS011;530;51.448;7.238;2024-01-07T06:30:06;19.90;;;15.40;;
1082;SDS011;530;51.448;7.238;2024-01-07T06:32:33;22.43;;;14.73;;
1082;SDS011;530;51.448;7.238;2024-01-07T06:34:59;21.00;;;15.70;;
1082;SDS011;530;51.448;7.238;2024-01-07T06:37:25;23.63;;;15.97;;
1082;SDS011;530;51.448;7.238;2024-01-07T06:39:54;21.13;;;15.07;;
1082;SDS011;530;51.448;7.238;2024-01-07T06:42:20;22.00;;;15.83;;
1082;SDS011;530;51.448;7.238;2024-01-07T06:44:45;21.27;;;15.23;;
1082;SDS011;530;51.448;7.238;2024-01-07T06:47:11;21.13;;;16.87;;
1082;SDS011;530;51.448;7.238;2024-01-07T06:49:37;20.80;;;15.90;;
1082;SDS011;530;51.448;7.238;2024-01-07T06:52:04;27.80;;;18.00;;
1082;SDS011;530;51.448;7.238;2024-01-07T06:54:30;23.60;;;14.80;;
1082;SDS011;530;51.448;7.238;2024-01-07T06:56:55;22.03;;;16.23;;
1082;SDS011;530;51.448;7.238;2024-01-07T06:59:21;24.10;;;16.93;;
1082;SDS011;530;51.448;7.238;2024-01-07T07:01:47;27.17;;;15.90;;
1082;SDS011;530;51.448;7.238;2024-01-07T07:04:12;22.53;;;14.30;;
1082;SDS011;530;51.448;7.238;2024-01-07T07:06:38;21.33;;;15.47;;
1082;SDS011;530;51.448;7.238;2024-01-07T07:09:04;23.67;;;16.30;;
1082;SDS011;530;51.448;7.238;2024-01-07T07:11:29;22.13;;;15.90;;
1082;SDS011;530;51.448;7.238;2024-01-07T07:13:56;21.50;;;14.83;;
1082;SDS011;530;51.448;7.238;2024-01-07T07:16:21;18.63;;;14.37;;
1082;SDS011;530;51.448;7.238;2024-01-07T07:18:47;21.30;;;15.70;;
1082;SDS011;530;51.448;7.238;2024-01-07T07:21:13;18.30;;;13.83;;
1082;SDS011;530;51.448;7.238;2024-01-07T07:23:38;22.27;;;14.77;;
1082;SDS011;530;51.448;7.238;2024-01-07T07:26:04;16.23;;;12.60;;
1082;SDS011;530;51.448;7.238;2024-01-07T07:28:30;17.67;;;12.70;;
1082;SDS011;530;51.448;7.238;2024-01-07T07:30:55;16.80;;;13.10;;
1082;SDS011;530;51.448;7.238;2024-01-07T07:33:21;17.20;;;13.00;;
1082;SDS011;530;51.448;7.238;2024-01-07T07:35:47;15.90;;;12.30;;
1082;SDS011;530;51.448;7.238;2024-01-07T07:38:12;14.70;;;11.80;;
1082;SDS011;530;51.448;7.238;2024-01-07T07:40:38;15.00;;;10.40;;
1082;SDS011;530;51.448;7.238;2024-01-07T07:43:04;14.03;;;10.63;;
1082;SDS011;530;51.448;7.238;2024-01-07T07:45:29;13.93;;;10.90;;
1082;SDS011;530;51.448;7.238;2024-01-07T07:47:55;14.27;;;10.37;;
1082;SDS011;530;51.448;7.238;2024-01-07T07:50:21;10.80;;;9.40;;
1082;SDS011;530;51.448;7.238;2024-01-07T07:52:46;15.40;;;10.20;;
1082;SDS011;530;51.448;7.238;2024-01-07T07:55:12;11.27;;;9.53;;
1082;SDS011;530;51.448;7.238;2024-01-07T07:57:38;12.53;;;9.27;;
1082;SDS011;530;51.448;7.238;2024-01-07T08:00:04;10.77;;;9.30;;
1082;SDS011;530;51.448;7.238;2024-01-07T08:02:31;12.00;;;9.37;;
1082;SDS011;530;51.448;7.238;2024-01-07T08:04:57;14.10;;;10.47;;
1082;SDS011;530;51.448;7.238;2024-01-07T08:07:22;12.53;;;10.17;;
1082;SDS011;530;51.448;7.238;2024-01-07T08:09:48;10.90;;;9.33;;
1082;SDS011;530;51.448;7.238;2024-01-07T08:12:14;14.10;;;9.83;;
1082;SDS011;530;51.448;7.238;2024-01-07T08:14:40;14.10;;;10.47;;
1082;SDS011;530;51.448;7.238;2024-01-07T08:17:08;15.20;;;11.33;;
1082;SDS011;530;51.448;7.238;2024-01-07T08:19:35;15.40;;;11.83;;
1082;SDS011;530;51.448;7.238;2024-01-07T08:22:01;15.53;;;11.70;;
1082;SDS011;530;51.448;7.238;2024-01-07T08:24:27;15.13;;;12.00;;
1082;SDS011;530;51.448;7.238;2024-01-07T08:26:52;15.23;;;12.20;;
1082;SDS011;530;51.448;7.238;2024-01-07T08:29:18;16.17;;;11.67;;
1082;SDS011;530;51.448;7.238;2024-01-07T08:31:44;14.23;;;11.27;;
1082;SDS011;530;51.448;7.238;2024-01-07T08:34:09;15.73;;;11.13;;
1082;SDS011;530;51.448;7.238;2024-01-07T08:36:35;17.13;;;11.87;;
1082;SDS011;530;51.448;7.238;2024-01-07T08:39:01;14.57;;;11.17;;
1082;SDS011;530;51.448;7.238;2024-01-07T08:41:26;15.20;;;11.40;;
1082;SDS011;530;51.448;7.238;2024-01-07T08:43:52;16.10;;;10.70;;
1082;SDS011;530;51.448;7.238;2024-01-07T08:46:21;13.03;;;10.53;;
1082;SDS011;530;51.448;7.238;2024-01-07T08:48:47;13.70;;;10.67;;
1082;SDS011;530;51.448;7.238;2024-01-07T08:51:12;15.40;;;10.00;;
1082;SDS011;530;51.448;7.238;2024-01-07T08:53:39;17.10;;;11.03;;
1082;SDS011;530;51.448;7.238;2024-01-07T08:56:05;17.00;;;11.97;;
1082;SDS011;530;51.448;7.238;2024-01-07T08:58:32;13.20;;;10.77;;
1082;SDS011;530;51.448;7.238;2024-01-07T09:00:58;14.40;;;11.90;;
1082;SDS011;530;51.448;7.238;2024-01-07T09:03:23;15.90;;;10.43;;
1082;SDS011;530;51.448;7.238;2024-01-07T09:05:49;12.47;;;10.17;;
1082;SDS011;530;51.448;7.238;2024-01-07T09:08:15;15.50;;;10.87;;
1082;SDS011;530;51.448;7.238;2024-01-07T09:10:40;12.90;;;10.50;;
1082;SDS011;530;51.448;7.238;2024-01-07T09:13:06;13.70;;;10.93;;
1082;SDS011;530;51.448;7.238;2024-01-07T09:15:32;12.80;;;10.13;;
1082;SDS011;530;51.448;7.238;2024-01-07T09:17:58;12.77;;;9.77;;
1082;SDS011;530;51.448;7.238;2024-01-07T09:20:23;12.23;;;10.27;;
1082;SDS011;530;51.448;7.238;2024-01-07T09:22:49;12.50;;;10.13;;
1082;SDS011;530;51.448;7.238;2024-01-07T09:25:15;14.27;;;10.20;;
1082;SDS011;530;51.448;7.238;2024-01-07T09:27:41;11.03;;;9.90;;
1082;SDS011;530;51.448;7.238;2024-01-07T09:30:08;12.10;;;10.00;;
1082;SDS011;530;51.448;7.238;2024-01-07T09:32:35;14.03;;;10.23;;
1082;SDS011;530;51.448;7.238;2024-01-07T09:35:01;10.93;;;9.37;;
1082;SDS011;530;51.448;7.238;2024-01-07T09:37:27;10.33;;;9.20;;
1082;SDS011;530;51.448;7.238;2024-01-07T09:39:53;10.30;;;9.03;;
1082;SDS011;530;51.448;7.238;2024-01-07T09:42:19;13.03;;;9.90;;
1082;SDS011;530;51.448;7.238;2024-01-07T09:44:45;11.17;;;9.97;;
1082;SDS011;530;51.448;7.238;2024-01-07T09:47:13;11.77;;;9.37;;
1082;SDS011;530;51.448;7.238;2024-01-07T09:49:40;10.17;;;8.80;;
1082;SDS011;530;51.448;7.238;2024-01-07T09:52:07;11.97;;;9.90;;
1082;SDS011;530;51.448;7.238;2024-01-07T09:54:35;12.53;;;9.30;;
1082;SDS011;530;51.448;7.238;2024-01-07T09:57:03;12.70;;;9.03;;
1082;SDS011;530;51.448;7.238;2024-01-07T09:59:31;13.00;;;9.27;;
1082;SDS011;530;51.448;7.238;2024-01-07T10:01:57;10.40;;;8.50;;
1082;SDS011;530;51.448;7.238;2024-01-07T10:04:24;10.33;;;8.80;;
1082;SDS011;530;51.448;7.238;2024-01-07T10:06:50;11.50;;;9.40;;
1082;SDS011;530;51.448;7.238;2024-01-07T10:09:17;10.33;;;8.23;;
1082;SDS011;530;51.448;7.238;2024-01-07T10:11:46;10.50;;;8.30;;
1082;SDS011;530;51.448;7.238;2024-01-07T10:14:12;11.83;;;8.70;;
1082;SDS011;530;51.448;7.238;2024-01-07T10:16:38;10.60;;;8.70;;
1082;SDS011;530;51.448;7.238;2024-01-07T10:19:04;11.90;;;8.90;;
1082;SDS011;530;51.448;7.238;2024-01-07T10:21:32;8.73;;;7.83;;
1082;SDS011;530;51.448;7.238;2024-01-07T10:24:08;14.77;;;8.97;;
1082;SDS011;530;51.448;7.238;2024-01-07T10:26:38;11.87;;;7.87;;
1082;SDS011;530;51.448;7.238;2024-01-07T10:29:05;7.33;;;6.17;;
1082;SDS011;530;51.448;7.238;2024-01-07T10:31:31;8.47;;;6.77;;
1082;SDS011;530;51.448;7.238;2024-01-07T10:33:57;10.50;;;6.97;;
1082;SDS011;530;51.448;7.238;2024-01-07T10:36:24;10.00;;;7.00;;
1082;SDS011;530;51.448;7.238;2024-01-07T10:38:50;7.77;;;6.20;;
1082;SDS011;530;51.448;7.238;2024-01-07T10:41:19;8.93;;;6.50;;
1082;SDS011;530;51.448;7.238;2024-01-07T10:43:48;8.63;;;6.40;;
1082;SDS011;530;51.448;7.238;2024-01-07T10:46:15;11.83;;;6.67;;
1082;SDS011;530;51.448;7.238;2024-01-07T10:48:50;12.83;;;7.50;;
1082;SDS011;530;51.448;7.238;2024-01-07T10:51:29;8.97;;;6.33;;
1082;SDS011;530;51.448;7.238;2024-01-07T10:53:59;9.57;;;6.67;;
1082;SDS011;530;51.448;7.238;2024-01-07T10:56:31;8.97;;;6.67;;
1082;SDS011;530;51.448;7.238;2024-01-07T10:59:03;10.87;;;7.83;;
1082;SDS011;530;51.448;7.238;2024-01-07T11:01:29;8.10;;;6.07;;
1082;SDS011;530;51.448;7.238;2024-01-07T11:04:03;8.40;;;6.70;;
1082;SDS011;530;51.448;7.238;2024-01-07T11:06:55;9.23;;;6.70;;
1082;SDS011;530;51.448;7.238;2024-01-07T11:09:33;8.60;;;6.70;;
1082;SDS011;530;51.448;7.238;2024-01-07T11:12:02;7.73;;;5.63;;
1082;SDS011;530;51.448;7.238;2024-01-07T11:17:10;10.10;;;7.40;;
1082;SDS011;530;51.448;7.238;2024-01-07T11:19:38;9.40;;;6.30;;
1082;SDS011;530;51.448;7.238;2024-01-07T11:22:23;7.00;;;6.17;;
1082;SDS011;530;51.448;7.238;2024-01-07T11:24:50;7.60;;;6.00;;
1082;SDS011;530;51.448;7.238;2024-01-07T11:27:16;5.67;;;5.07;;
1082;SDS011;530;51.448;7.238;2024-01-07T11:29:42;7.33;;;6.17;;
1082;SDS011;530;51.448;7.238;2024-01-07T11:32:09;6.97;;;6.23;;
1082;SDS011;530;51.448;7.238;2024-01-07T11:34:38;7.77;;;6.30;;
1082;SDS011;530;51.448;7.238;2024-01-07T11:37:17;6.40;;;5.73;;
1082;SDS011;530;51.448;7.238;2024-01-07T11:39:46;5.57;;;5.00;;
1082;SDS011;530;51.448;7.238;2024-01-07T11:42:13;5.60;;;5.10;;
1082;SDS011;530;51.448;7.238;2024-01-07T11:44:45;6.50;;;5.13;;
1082;SDS011;530;51.448;7.238;2024-01-07T11:47:12;7.53;;;5.20;;
1082;SDS011;530;51.448;7.238;2024-01-07T11:49:39;5.47;;;4.87;;
1082;SDS011;530;51.448;7.238;2024-01-07T11:52:04;6.30;;;5.20;;
1082;SDS011;530;51.448;7.238;2024-01-07T11:54:31;5.40;;;4.30;;
1082;SDS011;530;51.448;7.238;2024-01-07T11:56:57;6.00;;;5.40;;
1082;SDS011;530;51.448;7.238;2024-01-07T11:59:23;6.80;;;5.63;;
1082;SDS011;530;51.448;7.238;2024-01-07T12:01:49;6.63;;;5.87;;
1082;SDS011;530;51.448;7.238;2024-01-07T12:04:14;7.80;;;5.90;;
1082;SDS011;530;51.448;7.238;2024-01-07T12:06:40;6.80;;;5.23;;
1082;SDS011;530;51.448;7.238;2024-01-07T12:09:06;5.87;;;4.83;;
1082;SDS011;530;51.448;7.238;2024-01-07T12:11:32;6.07;;;5.43;;
1082;SDS011;530;51.448;7.238;2024-01-07T12:13:58;5.93;;;5.10;;
1082;SDS011;530;51.448;7.238;2024-01-07T12:16:25;4.03;;;3.63;;
1082;SDS011;530;51.448;7.238;2024-01-07T12:18:50;7.90;;;5.13;;
1082;SDS011;530;51.448;7.238;2024-01-07T12:21:19;4.60;;;4.20;;
1082;SDS011;530;51.448;7.238;2024-01-07T12:23:48;4.70;;;4.23;;
1082;SDS011;530;51.448;7.238;2024-01-07T12:26:15;5.47;;;4.63;;
1082;SDS011;530;51.448;7.238;2024-01-07T12:28:42;6.40;;;4.70;;
1082;SDS011;530;51.448;7.238;2024-01-07T12:31:08;5.03;;;4.30;;
1082;SDS011;530;51.448;7.238;2024-01-07T12:33:36;5.67;;;5.17;;
1082;SDS011;530;51.448;7.238;2024-01-07T12:36:03;5.03;;;4.30;;
1082;SDS011;530;51.448;7.238;2024-01-07T12:38:29;15.13;;;8.10;;
1082;SDS011;530;51.448;7.238;2024-01-07T12:40:55;7.37;;;5.73;;
1082;SDS011;530;51.448;7.238;2024-01-07T12:43:21;6.47;;;5.23;;
1082;SDS011;530;51.448;7.238;2024-01-07T12:45:48;5.23;;;4.47;;
1082;SDS011;530;51.448;7.238;2024-01-07T12:48:14;4.80;;;4.30;;
1082;SDS011;530;51.448;7.238;2024-01-07T12:50:39;5.07;;;4.57;;
1082;SDS011;530;51.448;7.238;2024-01-07T12:53:05;5.17;;;4.60;;
1082;SDS011;530;51.448;7.238;2024-01-07T12:55:31;6.30;;;4.23;;
1082;SDS011;530;51.448;7.238;2024-01-07T12:57:57;6.37;;;5.17;;
1082;SDS011;530;51.448;7.238;2024-01-07T13:00:26;5.33;;;4.07;;
1082;SDS011;530;51.448;7.238;2024-01-07T13:02:53;4.60;;;4.20;;
1082;SDS011;530;51.448;7.238;2024-01-07T13:05:22;5.67;;;4.30;;
1082;SDS011;530;51.448;7.238;2024-01-07T13:07:48;5.20;;;3.80;;
1082;SDS011;530;51.448;7.238;2024-01-07T13:10:15;5.67;;;4.53;;
1082;SDS011;530;51.448;7.238;2024-01-07T13:12:40;4.37;;;3.80;;
1082;SDS011;530;51.448;7.238;2024-01-07T13:15:07;4.27;;;3.77;;
1082;SDS011;530;51.448;7.238;2024-01-07T13:17:33;4.63;;;4.20;;
1082;SDS011;530;51.448;7.238;2024-01-07T13:19:59;4.40;;;4.00;;
1082;SDS011;530;51.448;7.238;2024-01-07T13:22:25;6.10;;;4.37;;
1082;SDS011;530;51.448;7.238;2024-01-07T13:24:51;6.80;;;4.90;;
1082;SDS011;530;51.448;7.238;2024-01-07T13:27:19;4.90;;;4.50;;
1082;SDS011;530;51.448;7.238;2024-01-07T13:29:46;4.40;;;4.00;;
1082;SDS011;530;51.448;7.238;2024-01-07T13:32:12;5.17;;;3.73;;
1082;SDS011;530;51.448;7.238;2024-01-07T13:34:42;5.10;;;3.40;;
1082;SDS011;530;51.448;7.238;2024-01-07T13:37:08;4.70;;;4.20;;
1082;SDS011;530;51.448;7.238;2024-01-07T13:39:35;4.17;;;3.77;;
1082;SDS011;530;51.448;7.238;2024-01-07T13:42:01;4.00;;;3.70;;
1082;SDS011;530;51.448;7.238;2024-01-07T13:44:26;4.47;;;3.50;;
1082;SDS011;530;51.448;7.238;2024-01-07T13:46:52;4.53;;;3.83;;
1082;SDS011;530;51.448;7.238;2024-01-07T13:49:18;4.03;;;3.63;;
1082;SDS011;530;51.448;7.238;2024-01-07T13:51:44;11.00;;;4.30;;
1082;SDS011;530;51.448;7.238;2024-01-07T13:54:10;3.13;;;2.90;;
1082;SDS011;530;51.448;7.238;2024-01-07T13:56:39;3.80;;;3.50;;
1082;SDS011;530;51.448;7.238;2024-01-07T13:59:07;3.33;;;3.03;;
1082;SDS011;530;51.448;7.238;2024-01-07T14:01:33;3.70;;;3.40;;
1082;SDS011;530;51.448;7.238;2024-01-07T14:03:59;4.13;;;3.23;;
1082;SDS011;530;51.448;7.238;2024-01-07T14:06:25;4.27;;;3.20;;
1082;SDS011;530;51.448;7.238;2024-01-07T14:08:51;3.83;;;3.43;;
1082;SDS011;530;51.448;7.238;2024-01-07T14:11:20;3.43;;;3.17;;
1082;SDS011;530;51.448;7.238;2024-01-07T14:13:46;3.43;;;3.10;;
1082;SDS011;530;51.448;7.238;2024-01-07T14:16:12;3.73;;;3.27;;
1082;SDS011;530;51.448;7.238;2024-01-07T14:18:38;3.10;;;2.50;;
1082;SDS011;530;51.448;7.238;2024-01-07T14:21:04;4.57;;;3.63;;
1082;SDS011;530;51.448;7.238;2024-01-07T14:23:30;3.43;;;3.13;;
1082;SDS011;530;51.448;7.238;2024-01-07T14:25:56;3.30;;;3.00;;
1082;SDS011;530;51.448;7.238;2024-01-07T14:28:22;9.40;;;5.93;;
1082;SDS011;530;51.448;7.238;2024-01-07T14:30:48;14.70;;;9.17;;
1082;SDS011;530;51.448;7.238;2024-01-07T14:33:14;5.97;;;4.83;;
1082;SDS011;530;51.448;7.238;2024-01-07T14:35:40;3.40;;;2.97;;
1082;SDS011;530;51.448;7.238;2024-01-07T14:38:05;4.20;;;3.00;;
1082;SDS011;530;51.448;7.238;2024-01-07T14:40:31;3.37;;;3.00;;
1082;SDS011;530;51.448;7.238;2024-01-07T14:42:57;4.77;;;3.30;;
1082;SDS011;530;51.448;7.238;2024-01-07T14:45:26;4.63;;;3.27;;
1082;SDS011;530;51.448;7.238;2024-01-07T14:47:53;6.27;;;3.63;;
1082;SDS011;530;51.448;7.238;2024-01-07T14:50:19;3.00;;;2.53;;
1082;SDS011;530;51.448;7.238;2024-01-07T14:52:46;3.30;;;2.93;;
1082;SDS011;530;51.448;7.238;2024-01-07T14:55:12;4.87;;;3.50;;
1082;SDS011;530;51.448;7.238;2024-01-07T14:57:42;2.97;;;2.77;;
1082;SDS011;530;51.448;7.238;2024-01-07T15:00:07;7.93;;;4.40;;
1082;SDS011;530;51.448;7.238;2024-01-07T15:02:34;4.07;;;3.67;;
1082;SDS011;530;51.448;7.238;2024-01-07T15:05:00;2.70;;;2.50;;
1082;SDS011;530;51.448;7.238;2024-01-07T15:07:26;4.13;;;2.70;;
1082;SDS011;530;51.448;7.238;2024-01-07T15:09:52;3.50;;;3.07;;